Time;durP1;ratioP1;P1;durP2;ratioP2;P2;SDS_P1;SDS_P2;PMS_P1;PMS_P2;Temp;Humidity;BMP_temperature;BMP_pressure;BME280_temperature;BME280_humidity;BME280_pressure;Samples;Min_cycle;Max_cycle;Signal;HPM_P1;HPM_P2
2023/01/05 00:01:26;;;;;;;1.80;1.20;;;;;;;7.76;88.21;97944.84;102883;1298;138139;-76
2023/01/05 00:03:53;;;;;;;1.80;1.30;;;;;;;7.77;88.28;97938.72;102799;1313;137871;-76
2023/01/05 00:06:20;;;;;;;1.90;1.50;;;;;;;7.77;88.06;97923.20;102939;1312;137994;-78
2023/01/05 00:08:47;;;;;;;2.00;1.00;;;;;;;7.77;88.23;97920.73;102836;1287;137782;-80
2023/01/05 00:22:29;;;;;;;2.80;1.30;;;;;;;7.77;88.14;97909.63;102782;1311;137752;-77
2023/01/05 00:22:33;;;;;;;1.80;1.20;;;;;;;7.75;88.19;97909.54;102940;1312;22470;-77
2023/01/05 00:25:05;;;;;;;;;;;;;;;7.75;88.31;97905.08;102928;1292;138261;-77
2023/01/05 00:27:32;;;;;;;2.90;1.10;;;;;;;7.73;88.21;97901.08;102714;1312;124196;-77
2023/01/05 00:30:00;;;;;;;1.70;1.00;;;;;;;7.72;88.37;97898.73;102832;1291;138382;-77
2023/01/05 00:32:27;;;;;;;1.50;1.10;;;;;;;7.71;88.37;97899.58;102814;1291;138010;-77
2023/01/05 00:34:55;;;;;;;2.50;1.10;;;;;;;7.71;88.43;97898.71;103459;1298;23281;-77
2023/01/05 00:37:25;;;;;;;1.70;0.90;;;;;;;7.72;88.56;97903.82;102884;1288;137596;-77
2023/01/05 00:39:52;;;;;;;2.10;1.00;;;;;;;7.74;88.25;97907.77;103113;1286;137880;-77
2023/01/05 00:42:19;;;;;;;1.70;1.00;;;;;;;7.76;87.94;97904.90;102827;1312;138211;-77
2023/01/05 00:44:46;;;;;;;1.90;1.10;;;;;;;7.78;88.09;97899.39;102845;1312;137780;-77
2023/01/05 00:47:13;;;;;;;1.00;0.90;;;;;;;7.80;87.88;97904.31;102932;1312;22495;-77
2023/01/05 00:49:40;;;;;;;2.10;1.00;;;;;;;7.80;87.86;97903.89;102928;1295;139865;-76
2023/01/05 00:52:07;;;;;;;1.60;1.00;;;;;;;7.82;87.62;97890.20;102812;1313;137887;-77
2023/01/05 00:54:34;;;;;;;2.00;1.30;;;;;;;7.83;87.63;97870.06;102850;1313;137706;-76
2023/01/05 00:57:02;;;;;;;1.10;1.00;;;;;;;7.83;87.58;97869.84;102823;1313;138077;-76
2023/01/05 00:59:29;;;;;;;2.10;1.30;;;;;;;7.82;87.18;97868.74;103149;1294;23331;-77
2023/01/05 01:01:56;;;;;;;2.40;1.00;;;;;;;7.83;87.23;97861.81;103146;1312;137437;-77
2023/01/05 01:04:23;;;;;;;1.70;1.10;;;;;;;7.84;87.17;97857.05;103051;1292;139131;-77
2023/01/05 01:06:50;;;;;;;1.10;1.00;;;;;;;7.85;87.01;97846.08;102849;1313;137767;-77
2023/01/05 01:09:18;;;;;;;1.20;0.90;;;;;;;7.86;86.90;97850.64;102844;1289;138289;-77
2023/01/05 01:11:46;;;;;;;2.30;1.30;;;;;;;7.88;86.84;97848.02;102800;1289;139979;-77
2023/01/05 01:14:13;;;;;;;1.50;1.10;;;;;;;7.89;86.59;97838.01;102919;1290;137918;-77
2023/01/05 01:16:41;;;;;;;1.50;0.90;;;;;;;7.90;86.66;97834.41;102783;1316;24256;-77
2023/01/05 01:19:13;;;;;;;2.40;1.30;;;;;;;7.92;86.48;97832.16;102897;1292;138634;-77
2023/01/05 01:21:41;;;;;;;2.70;1.10;;;;;;;7.93;86.33;97834.83;102989;1305;137718;-77
2023/01/05 01:24:13;;;;;;;1.50;1.00;;;;;;;7.94;86.17;97835.45;103264;1298;137884;-77
2023/01/05 01:26:40;;;;;;;1.60;1.10;;;;;;;7.95;86.23;97844.26;103007;1283;137928;-77
2023/01/05 01:29:07;;;;;;;3.50;1.00;;;;;;;7.96;86.19;97840.45;103052;1298;23948;-77
2023/01/05 01:31:34;;;;;;;1.50;1.30;;;;;;;7.99;86.03;97825.40;102859;1304;137599;-77
2023/01/05 01:34:01;;;;;;;1.20;0.80;;;;;;;8.01;85.90;97822.99;102947;1298;137953;-77
2023/01/05 01:36:28;;;;;;;1.90;1.20;;;;;;;8.02;85.83;97820.63;102906;1290;137993;-77
2023/01/05 01:38:55;;;;;;;1.60;1.50;;;;;;;8.03;85.84;97815.27;102788;1294;139525;-76
2023/01/05 01:41:22;;;;;;;1.50;1.10;;;;;;;8.03;85.65;97811.86;103043;1301;22484;-77
2023/01/05 01:43:55;;;;;;;1.30;0.90;;;;;;;8.03;85.84;97809.85;102851;1313;139967;-76
2023/01/05 01:46:26;;;;;;;1.40;1.00;;;;;;;8.03;85.71;97801.16;102994;1313;22520;-76
2023/01/05 01:48:56;;;;;;;;;;;;;;;8.03;85.58;97807.58;103069;1312;137943;-77
2023/01/05 01:51:34;;;;;;;1.20;1.00;;;;;;;8.04;85.86;97808.95;102938;1298;124358;-77
2023/01/05 01:54:06;;;;;;;1.30;1.10;;;;;;;8.05;86.53;97805.98;103013;1312;138176;-77
2023/01/05 01:56:57;;;;;;;1.70;1.00;;;;;;;8.06;86.64;97796.29;103195;1297;138686;-77
2023/01/05 01:59:25;;;;;;;2.20;0.80;;;;;;;8.04;86.84;97787.73;102900;1291;25253;-76
2023/01/05 02:01:56;;;;;;;1.70;1.00;;;;;;;8.02;87.04;97779.37;103968;1284;138396;-77
2023/01/05 02:04:25;;;;;;;1.90;0.80;;;;;;;8.02;86.96;97770.83;103145;1304;22480;-77
2023/01/05 02:06:52;;;;;;;1.60;0.80;;;;;;;8.00;87.12;97771.35;102949;1312;139582;-77
2023/01/05 02:09:19;;;;;;;1.00;0.70;;;;;;;8.01;87.19;97766.22;102874;1298;138204;-77
2023/01/05 02:11:57;;;;;;;1.00;0.80;;;;;;;8.01;87.11;97768.17;102867;1312;138085;-77
2023/01/05 02:14:39;;;;;;;1.20;1.00;;;;;;;8.03;86.92;97752.36;103808;1290;137961;-77
2023/01/05 02:17:19;;;;;;;0.50;0.50;;;;;;;8.04;86.84;97751.49;103447;1288;25449;-77
2023/01/05 02:19:49;;;;;;;;;;;;;;;8.06;86.62;97747.36;104246;1313;137818;-77
2023/01/05 02:22:34;;;;;;;1.20;1.00;;;;;;;8.09;86.73;97742.77;102784;1300;124156;-77
2023/01/05 02:25:16;;;;;;;0.70;0.60;;;;;;;8.13;86.87;97738.92;102941;1291;139367;-77
2023/01/05 02:28:05;;;;;;;0.60;0.60;;;;;;;8.16;86.85;97735.81;102899;1294;138129;-77
2023/01/05 02:31:05;;;;;;;0.80;0.70;;;;;;;8.19;86.91;97745.73;102974;1305;139639;-77
2023/01/05 02:34:14;;;;;;;0.90;0.90;;;;;;;8.22;86.86;97741.29;103108;1292;140453;-77
2023/01/05 02:36:48;;;;;;;1.50;0.80;;;;;;;8.25;86.80;97733.08;103370;1291;138023;-77
2023/01/05 02:39:23;;;;;;;0.80;0.70;;;;;;;8.27;86.71;97736.64;103250;1291;138111;-77
2023/01/05 02:42:02;;;;;;;1.40;0.80;;;;;;;8.30;86.90;97733.70;103383;1295;140938;-77
2023/01/05 02:44:32;;;;;;;1.30;1.00;;;;;;;8.31;86.91;97730.20;103162;1307;138824;-78
2023/01/05 02:47:19;;;;;;;1.00;0.80;;;;;;;8.33;87.04;97725.89;103035;1291;23278;-78
2023/01/05 02:49:46;;;;;;;0.70;0.60;;;;;;;8.36;86.74;97729.66;102932;1304;138322;-77
2023/01/05 02:52:14;;;;;;;2.10;0.60;;;;;;;8.38;86.56;97726.61;103033;1298;137963;-77
2023/01/05 02:54:52;;;;;;;0.80;0.80;;;;;;;8.42;86.34;97727.31;102725;1306;138260;-77
2023/01/05 02:57:45;;;;;;;2.80;1.00;;;;;;;8.46;86.17;97729.84;103052;1291;138199;-78
2023/01/05 03:00:17;;;;;;;2.80;0.70;;;;;;;8.49;86.48;97725.39;102907;1312;138112;-77
2023/01/05 03:02:48;;;;;;;1.10;0.80;;;;;;;8.50;86.55;97719.97;102629;1290;139280;-77
2023/01/05 03:05:22;;;;;;;1.10;0.50;;;;;;;8.51;86.47;97718.14;103360;1295;23902;-77
2023/01/05 03:07:51;;;;;;;0.60;0.50;;;;;;;8.54;86.29;97712.05;102857;1304;137870;-78
2023/01/05 03:16:00;;;;;;;0.70;0.70;;;;;;;8.57;86.21;97692.66;102860;1307;138569;-77
2023/01/05 03:18:31;;;;;;;1.00;0.50;;;;;;;8.57;86.04;97685.39;102912;1291;138213;-77
2023/01/05 03:21:00;;;;;;;0.60;0.60;;;;;;;8.58;85.79;97680.67;102971;1312;137959;-77
2023/01/05 03:38:32;;;;;;;0.70;0.60;;;;;;;8.69;84.89;97664.31;102832;1305;138596;-77
2023/01/05 03:41:04;;;;;;;1.20;0.70;;;;;;;8.67;84.94;97658.00;102989;1313;22520;-77
2023/01/05 03:43:35;;;;;;;2.50;0.80;;;;;;;8.67;85.00;97669.71;102793;1313;138395;-77
2023/01/05 03:46:10;;;;;;;1.20;0.80;;;;;;;8.65;85.33;97675.41;103106;1298;138450;-77
2023/01/05 03:48:37;;;;;;;1.70;0.90;;;;;;;8.63;85.53;97677.04;103332;1289;138282;-78
2023/01/05 03:51:05;;;;;;;1.80;0.80;;;;;;;8.60;85.63;97681.80;102955;1298;139196;-77
2023/01/05 03:53:33;;;;;;;1.40;0.90;;;;;;;8.58;85.87;97674.21;103065;1288;22488;-78
2023/01/05 03:56:00;;;;;;;2.80;1.30;;;;;;;8.55;86.08;97669.89;102832;1285;139964;-78
2023/01/05 03:58:27;;;;;;;1.80;0.70;;;;;;;8.53;86.30;97668.95;102933;1292;139045;-77
2023/01/05 04:00:54;;;;;;;2.90;0.90;;;;;;;8.50;86.74;97671.34;102658;1312;139968;-78
2023/01/05 04:03:21;;;;;;;1.50;1.00;;;;;;;8.45;86.98;97678.77;102825;1313;138408;-77
2023/01/05 04:05:48;;;;;;;4.90;1.30;;;;;;;8.41;87.47;97673.70;102900;1312;139361;-76
2023/01/05 04:08:15;;;;;;;2.30;1.10;;;;;;;8.34;87.95;97673.64;102958;1289;138405;-78
2023/01/05 04:10:43;;;;;;;1.30;1.20;;;;;;;8.27;88.19;97665.29;102959;1312;22488;-77
2023/01/05 04:13:11;;;;;;;1.20;0.90;;;;;;;8.21;88.49;97666.23;102874;1298;138278;-78
2023/01/05 04:15:39;;;;;;;2.00;1.40;;;;;;;8.16;88.82;97668.46;102987;1300;137918;-77
2023/01/05 04:18:07;;;;;;;2.10;1.20;;;;;;;8.11;89.57;97666.64;103001;1287;139374;-77
2023/01/05 04:20:34;;;;;;;2.30;1.10;;;;;;;8.06;89.70;97666.46;102967;1312;138233;-78
2023/01/05 04:23:02;;;;;;;1.80;1.00;;;;;;;8.03;89.87;97649.32;102997;1312;22484;-77
2023/01/05 04:25:31;;;;;;;2.20;1.40;;;;;;;8.00;90.03;97648.10;102860;1311;137659;-77
2023/01/05 04:28:04;;;;;;;1.20;0.70;;;;;;;7.98;90.35;97660.98;102955;1313;138554;-77
2023/01/05 04:30:34;;;;;;;1.00;0.70;;;;;;;7.96;90.40;97656.13;102842;1307;137960;-77
2023/01/05 04:33:01;;;;;;;1.00;0.80;;;;;;;7.96;90.32;97655.08;102930;1313;137796;-77
2023/01/05 04:35:29;;;;;;;3.20;0.80;;;;;;;7.96;90.29;97651.51;102842;1287;22528;-77
2023/01/05 04:37:57;;;;;;;0.80;0.60;;;;;;;7.95;90.45;97647.76;102751;1300;139154;-77
2023/01/05 04:40:24;;;;;;;0.80;0.60;;;;;;;7.97;90.16;97650.81;102694;1297;137894;-77
2023/01/05 04:42:52;;;;;;;0.60;0.50;;;;;;;7.97;90.31;97651.96;102680;1298;138201;-78
2023/01/05 04:45:19;;;;;;;1.50;0.90;;;;;;;7.99;90.43;97646.63;102694;1312;138235;-77
2023/01/05 04:47:46;;;;;;;0.80;0.70;;;;;;;8.00;90.62;97646.09;102928;1312;22503;-77
2023/01/05 04:50:17;;;;;;;0.80;0.60;;;;;;;8.01;90.49;97644.42;102824;1285;137998;-77
2023/01/05 04:52:45;;;;;;;1.10;0.60;;;;;;;8.01;90.58;97644.09;103107;1291;22475;-77
2023/01/05 04:55:12;;;;;;;1.50;0.60;;;;;;;8.01;90.44;97636.02;102948;1292;137781;-77
2023/01/05 04:57:39;;;;;;;1.90;0.50;;;;;;;8.02;90.56;97635.11;102816;1312;138060;-77
2023/01/05 05:00:10;;;;;;;1.30;0.60;;;;;;;8.02;90.60;97639.84;103357;1288;138088;-77
2023/01/05 05:02:37;;;;;;;1.20;0.70;;;;;;;8.02;90.84;97640.70;103001;1312;138129;-77
2023/01/05 05:05:04;;;;;;;2.20;0.80;;;;;;;8.03;91.22;97647.00;103065;1292;23223;-77
2023/01/05 05:07:34;;;;;;;4.50;0.70;;;;;;;8.01;91.42;97639.86;102846;1313;139250;-77
2023/01/05 05:10:03;;;;;;;3.00;0.90;;;;;;;7.98;92.00;97647.97;102903;1294;139815;-77
2023/01/05 05:12:30;;;;;;;1.10;0.60;;;;;;;7.95;92.37;97647.15;102817;1291;138447;-77
2023/01/05 05:14:57;;;;;;;2.70;0.80;;;;;;;7.91;92.89;97648.13;102846;1307;138107;-77
2023/01/05 05:17:24;;;;;;;1.70;0.70;;;;;;;7.86;93.36;97636.23;102790;1313;23908;-78
2023/01/05 05:19:52;;;;;;;1.80;0.90;;;;;;;7.81;93.83;97637.94;102995;1290;138401;-78
2023/01/05 05:22:20;;;;;;;1.80;0.90;;;;;;;7.78;94.28;97623.55;102761;1300;139042;-76
2023/01/05 05:24:47;;;;;;;2.60;1.10;;;;;;;7.76;94.00;97610.77;103131;1297;137919;-77
2023/01/05 05:27:14;;;;;;;1.50;0.80;;;;;;;7.76;94.02;97614.14;103159;1288;137872;-77
2023/01/05 05:29:41;;;;;;;1.00;1.00;;;;;;;7.76;93.73;97616.83;103389;1289;25279;-77
2023/01/05 05:32:07;;;;;;;1.00;0.90;;;;;;;7.76;93.61;97621.27;103042;1288;139157;-77
2023/01/05 05:34:34;;;;;;;1.80;1.00;;;;;;;7.75;93.84;97625.05;103262;1289;22469;-77
2023/01/05 05:37:01;;;;;;;2.70;1.00;;;;;;;7.74;94.01;97628.40;103197;1298;139309;-77
2023/01/05 05:39:28;;;;;;;2.40;1.10;;;;;;;7.73;94.07;97629.80;102887;1287;138046;-77
2023/01/05 05:41:55;;;;;;;1.70;1.00;;;;;;;7.73;94.45;97634.52;102834;1312;138086;-77
2023/01/05 05:44:22;;;;;;;1.10;0.60;;;;;;;7.72;94.53;97629.56;102764;1297;140042;-77
2023/01/05 05:46:49;;;;;;;1.00;0.70;;;;;;;7.70;94.64;97619.39;102933;1313;22478;-77
2023/01/05 05:49:16;;;;;;;0.60;0.60;;;;;;;7.68;94.54;97619.96;102991;1292;137984;-77
2023/01/05 05:51:43;;;;;;;0.90;0.60;;;;;;;7.67;94.88;97611.21;103099;1300;137892;-77
2023/01/05 05:54:09;;;;;;;1.30;0.80;;;;;;;7.68;94.68;97625.00;103533;1291;138096;-78
2023/01/05 05:56:36;;;;;;;2.70;0.70;;;;;;;7.71;95.06;97630.79;104682;1295;138170;-77
2023/01/05 05:59:03;;;;;;;2.00;0.70;;;;;;;7.73;94.99;97630.48;103109;1287;25328;-78
2023/01/05 06:01:30;;;;;;;1.90;0.70;;;;;;;7.72;95.15;97629.58;102840;1312;138388;-77
2023/01/05 06:03:57;;;;;;;1.10;0.70;;;;;;;7.72;95.21;97624.63;102856;1312;137944;-77
2023/01/05 06:06:24;;;;;;;2.60;0.80;;;;;;;7.69;95.69;97615.61;102838;1299;138161;-77
2023/01/05 06:08:51;;;;;;;1.00;0.70;;;;;;;7.68;95.93;97615.25;103538;1289;138099;-77
2023/01/05 06:11:18;;;;;;;1.10;0.90;;;;;;;7.67;96.06;97614.54;102954;1305;24241;-77
2023/01/05 06:13:45;;;;;;;1.80;0.70;;;;;;;7.65;96.17;97607.88;103142;1290;137754;-77
2023/01/05 06:16:11;;;;;;;1.20;0.80;;;;;;;7.64;96.36;97616.48;103056;1304;139883;-77
2023/01/05 06:18:38;;;;;;;1.70;1.00;;;;;;;7.64;96.43;97624.45;104682;1297;139193;-78
2023/01/05 06:21:06;;;;;;;1.10;0.70;;;;;;;7.64;96.42;97630.75;104451;1313;138687;-78
2023/01/05 06:23:33;;;;;;;1.30;0.80;;;;;;;7.64;96.43;97625.96;103588;1289;23552;-77
2023/01/05 06:26:00;;;;;;;1.10;0.60;;;;;;;7.62;96.62;97621.16;103860;1295;137794;-78
2023/01/05 06:28:27;;;;;;;3.20;1.00;;;;;;;7.62;96.44;97620.66;103024;1292;137782;-77
2023/01/05 06:30:54;;;;;;;1.80;1.00;;;;;;;7.62;96.41;97624.09;103420;1292;139696;-77
2023/01/05 06:33:20;;;;;;;1.60;0.90;;;;;;;7.63;96.39;97622.68;103585;1292;139539;-77
2023/01/05 06:35:47;;;;;;;2.90;1.70;;;;;;;7.63;96.35;97629.63;102976;1313;24400;-77
2023/01/05 06:38:15;;;;;;;1.40;1.10;;;;;;;7.63;96.16;97641.61;103039;1284;141496;-76
2023/01/05 06:40:43;;;;;;;2.00;0.70;;;;;;;7.64;96.34;97656.26;103410;1298;25310;-77
2023/01/05 06:43:11;;;;;;;2.00;0.80;;;;;;;7.64;96.85;97692.23;102812;1298;138366;-79
2023/01/05 06:45:38;;;;;;;1.40;0.50;;;;;;;7.55;93.29;97676.22;102846;1291;139332;-79
2023/01/05 06:48:06;;;;;;;0.80;0.30;;;;;;;7.40;91.36;97669.79;103224;1294;139789;-78
2023/01/05 06:50:33;;;;;;;1.30;0.40;;;;;;;7.22;90.92;97667.61;102866;1295;138258;-78
2023/01/05 06:53:00;;;;;;;0.70;0.20;;;;;;;7.09;91.53;97663.09;103099;1301;24353;-78
2023/01/05 06:55:27;;;;;;;0.20;0.20;;;;;;;6.97;90.96;97664.45;103065;1298;139431;-78
2023/01/05 06:57:54;;;;;;;1.80;0.60;;;;;;;6.84;90.78;97664.08;102847;1298;138005;-78
2023/01/05 07:00:21;;;;;;;1.60;0.50;;;;;;;6.72;91.35;97662.27;102957;1296;138094;-78
2023/01/05 07:02:48;;;;;;;1.00;0.60;;;;;;;6.61;91.47;97677.85;103176;1291;138574;-78
2023/01/05 07:05:15;;;;;;;2.30;0.80;;;;;;;6.50;92.11;97684.83;103016;1297;25323;-78
2023/01/05 07:07:43;;;;;;;0.80;0.60;;;;;;;6.40;92.40;97673.63;103094;1297;137886;-79
2023/01/05 07:10:10;;;;;;;2.80;0.80;;;;;;;6.33;93.20;97696.02;103506;1299;138378;-79
2023/01/05 07:12:37;;;;;;;2.30;0.40;;;;;;;6.25;94.59;97720.29;102998;1313;138199;-80
2023/01/05 07:15:05;;;;;;;0.50;0.20;;;;;;;6.18;95.29;97736.73;103005;1313;138005;-79
2023/01/05 07:17:32;;;;;;;0.50;0.20;;;;;;;6.09;95.36;97751.77;103062;1298;24064;-78
2023/01/05 07:19:58;;;;;;;1.40;0.20;;;;;;;5.94;94.71;97757.43;103347;1307;137832;-78
2023/01/05 07:22:27;;;;;;;1.00;0.50;;;;;;;5.78;94.45;97755.30;103033;1287;138027;-76
2023/01/05 07:24:53;;;;;;;0.40;0.20;;;;;;;5.66;94.44;97742.06;103583;1302;138168;-75
2023/01/05 07:27:20;;;;;;;0.30;0.20;;;;;;;5.56;95.04;97748.57;103191;1298;139102;-78
2023/01/05 07:29:47;;;;;;;0.90;0.40;;;;;;;5.47;95.67;97752.52;105116;1301;22332;-78
2023/01/05 07:32:14;;;;;;;0.90;0.30;;;;;;;5.41;96.35;97738.84;104276;1307;140110;-78
2023/01/05 07:34:41;;;;;;;1.30;0.20;;;;;;;5.38;96.79;97729.42;103319;1301;22535;-77
2023/01/05 07:37:08;;;;;;;1.30;0.30;;;;;;;5.37;96.56;97723.72;103355;1295;137901;-77
2023/01/05 07:39:35;;;;;;;1.50;0.40;;;;;;;5.37;96.77;97734.95;103654;1285;137941;-77
2023/01/05 07:42:02;;;;;;;1.00;0.30;;;;;;;5.38;96.90;97742.10;103737;1288;138857;-78
2023/01/05 07:44:30;;;;;;;1.10;0.40;;;;;;;5.41;97.05;97730.55;103010;1297;138638;-77
2023/01/05 07:46:57;;;;;;;0.90;0.50;;;;;;;5.44;97.17;97723.85;103476;1294;26785;-78
2023/01/05 07:49:25;;;;;;;1.90;0.80;;;;;;;5.49;97.48;97717.77;102958;1313;138198;-78
2023/01/05 07:51:51;;;;;;;1.30;0.70;;;;;;;5.56;97.65;97712.54;102963;1313;138336;-78
2023/01/05 07:54:20;;;;;;;1.70;0.70;;;;;;;5.61;97.57;97717.75;103116;1306;138075;-78
2023/01/05 07:56:47;;;;;;;2.40;1.00;;;;;;;5.63;97.47;97720.98;104512;1289;139032;-78
2023/01/05 07:59:14;;;;;;;2.10;0.90;;;;;;;5.65;97.55;97727.63;104094;1313;23457;-79
2023/01/05 08:01:41;;;;;;;1.90;0.80;;;;;;;5.66;97.52;97728.63;105844;1292;138491;-79
2023/01/05 08:04:08;;;;;;;2.20;0.90;;;;;;;5.68;97.90;97726.54;105433;1287;139405;-77
2023/01/05 08:06:35;;;;;;;2.70;1.20;;;;;;;5.72;98.16;97720.23;104561;1307;140306;-78
2023/01/05 08:10:27;;;;;;;3.20;1.40;;;;;;;5.77;98.55;97726.19;104478;1290;137932;-78
2023/01/05 08:11:50;;;;;;;1.80;1.30;;;;;;;5.84;99.16;97732.98;103645;1286;22518;-77
2023/01/05 08:14:17;;;;;;;2.20;1.30;;;;;;;5.94;99.67;97732.13;104119;1306;138833;-77
2023/01/05 08:16:44;;;;;;;3.00;1.40;;;;;;;6.03;99.97;97725.83;103042;1295;22514;-76
2023/01/05 08:19:11;;;;;;;4.20;1.70;;;;;;;6.14;99.89;97734.90;104054;1290;137907;-76
2023/01/05 08:21:38;;;;;;;3.90;1.10;;;;;;;6.23;100.00;97728.40;102859;1304;138505;-77
2023/01/05 08:24:05;;;;;;;2.00;1.40;;;;;;;6.32;99.86;97729.25;103210;1306;138249;-76
2023/01/05 08:26:32;;;;;;;3.90;1.70;;;;;;;6.39;99.92;97742.60;102896;1294;138126;-76
2023/01/05 08:29:00;;;;;;;3.40;1.70;;;;;;;6.43;99.83;97743.65;103665;1295;22499;-77
2023/01/05 08:31:29;;;;;;;2.80;1.50;;;;;;;6.48;99.76;97744.60;102994;1295;138042;-76
2023/01/05 08:33:58;;;;;;;4.30;2.10;;;;;;;6.51;99.67;97739.48;102977;1312;138390;-79
2023/01/05 08:36:25;;;;;;;;;;;;;;;6.54;99.64;97728.83;103241;1297;138295;-74
2023/01/05 08:38:54;;;;;;;4.20;3.20;;;;;;;6.56;99.60;97721.79;103883;1294;125104;-75
2023/01/05 08:41:30;;;;;;;5.70;3.50;;;;;;;6.58;99.39;97721.27;104538;1309;23302;-76
2023/01/05 08:43:59;;;;;;;4.20;2.80;;;;;;;6.58;99.85;97726.60;103146;1297;137741;-74
2023/01/05 08:46:31;;;;;;;4.70;2.80;;;;;;;6.58;99.50;97735.25;103032;1294;138585;-79
2023/01/05 08:49:01;;;;;;;4.30;2.50;;;;;;;6.60;99.88;97732.46;104004;1297;139601;-79
2023/01/05 08:51:29;;;;;;;4.20;2.50;;;;;;;6.62;99.58;97735.44;103245;1294;139833;-78
2023/01/05 08:53:57;;;;;;;4.20;2.10;;;;;;;6.63;99.85;97739.70;103700;1295;22507;-77
2023/01/05 08:56:25;;;;;;;4.60;1.90;;;;;;;6.64;99.73;97736.02;104155;1292;137826;-76
2023/01/05 08:58:57;;;;;;;2.40;1.40;;;;;;;6.65;99.66;97735.45;103821;1302;25301;-75
2023/01/05 09:01:25;;;;;;;3.90;2.20;;;;;;;6.63;99.67;97741.11;103533;1302;138887;-75
2023/01/05 09:03:52;;;;;;;2.50;1.20;;;;;;;6.63;99.45;97742.82;103361;1298;138412;-76
2023/01/05 09:06:19;;;;;;;1.60;1.30;;;;;;;6.62;99.67;97745.84;103392;1298;138648;-76
2023/01/05 09:08:46;;;;;;;3.70;1.50;;;;;;;6.60;99.58;97744.58;103851;1307;138156;-76
2023/01/05 09:11:21;;;;;;;2.80;1.40;;;;;;;6.59;99.58;97744.73;104151;1304;22326;-76
2023/01/05 09:13:53;;;;;;;3.50;1.50;;;;;;;6.59;99.64;97740.20;103352;1289;138323;-75
2023/01/05 09:16:22;;;;;;;2.20;1.50;;;;;;;6.62;99.86;97742.38;103843;1290;139311;-74
2023/01/05 09:18:50;;;;;;;3.00;1.70;;;;;;;6.67;99.60;97744.39;104324;1301;139769;-73
2023/01/05 09:21:17;;;;;;;2.20;1.40;;;;;;;6.71;99.93;97750.13;104019;1295;138599;-76
2023/01/05 09:23:45;;;;;;;3.80;2.00;;;;;;;6.73;98.92;97741.71;103377;1298;23065;-76
2023/01/05 09:26:14;;;;;;;4.80;2.20;;;;;;;6.75;98.80;97740.91;103414;1295;138442;-76
2023/01/05 09:28:43;;;;;;;2.70;1.60;;;;;;;6.76;98.72;97749.27;103533;1299;25378;-76
2023/01/05 09:31:21;;;;;;;4.10;2.10;;;;;;;6.78;98.91;97752.45;103850;1299;138594;-75
2023/01/05 09:33:48;;;;;;;2.40;1.30;;;;;;;6.79;98.74;97751.39;103488;1297;138498;-76
2023/01/05 09:36:16;;;;;;;4.40;2.00;;;;;;;6.81;98.59;97748.52;103700;1313;138515;-76
2023/01/05 09:38:51;;;;;;;3.90;1.90;;;;;;;6.86;98.42;97748.17;105855;1313;138587;-76
2023/01/05 09:41:33;;;;;;;4.00;2.50;;;;;;;6.90;98.33;97748.30;103531;1288;22477;-76
2023/01/05 09:44:10;;;;;;;4.10;1.80;;;;;;;6.92;98.51;97750.52;104011;1297;139733;-75
2023/01/05 09:46:41;;;;;;;4.30;2.00;;;;;;;6.93;98.29;97750.65;103374;1296;25210;-76
2023/01/05 09:49:14;;;;;;;3.30;1.70;;;;;;;6.95;98.32;97748.70;102726;1313;137747;-75
2023/01/05 09:51:41;;;;;;;4.00;1.90;;;;;;;6.97;98.46;97749.70;103474;1306;139185;-75
2023/01/05 09:54:18;;;;;;;4.10;2.10;;;;;;;6.99;98.59;97752.03;103959;1297;139449;-76
2023/01/05 09:56:46;;;;;;;2.30;1.70;;;;;;;7.00;98.27;97745.29;103029;1291;138578;-75
2023/01/05 09:59:21;;;;;;;3.40;2.20;;;;;;;7.00;98.12;97739.77;104230;1291;25361;-75
2023/01/05 10:01:51;;;;;;;3.60;2.20;;;;;;;7.00;98.24;97737.27;104561;1298;138647;-75
2023/01/05 10:04:22;;;;;;;3.40;1.80;;;;;;;7.01;98.17;97743.66;104491;1308;138845;-76
2023/01/05 10:14:01;;;;;;;3.60;2.30;;;;;;;7.07;98.29;97737.67;103060;1313;138724;-76
2023/01/05 10:16:30;;;;;;;2.50;1.60;;;;;;;7.09;97.96;97737.33;102857;1296;138090;-76
2023/01/05 10:19:00;;;;;;;4.40;2.20;;;;;;;7.12;98.06;97734.25;103229;1294;138502;-76
2023/01/05 10:21:46;;;;;;;5.40;2.10;;;;;;;7.14;98.25;97733.96;103294;1311;138251;-76
2023/01/05 10:24:36;;;;;;;3.60;1.40;;;;;;;7.18;98.04;97732.36;102776;1297;139426;-76
2023/01/05 10:27:09;;;;;;;4.90;1.90;;;;;;;7.20;97.76;97728.39;102770;1297;137896;-76
2023/01/05 10:29:44;;;;;;;4.80;1.90;;;;;;;7.22;97.59;97724.11;103029;1303;22701;-76
2023/01/05 10:32:18;;;;;;;3.10;1.60;;;;;;;7.24;97.78;97721.48;103064;1304;139244;-77
2023/01/05 10:34:59;;;;;;;3.50;1.30;;;;;;;7.26;97.37;97718.23;104341;1296;22562;-77
2023/01/05 10:37:40;;;;;;;5.20;2.00;;;;;;;7.33;97.46;97714.18;104337;1288;139719;-76
2023/01/05 10:40:23;;;;;;;4.80;2.40;;;;;;;7.38;96.85;97715.46;104222;1287;137949;-76
2023/01/05 10:43:15;;;;;;;5.30;2.00;;;;;;;7.41;96.48;97714.77;103273;1289;138048;-76
2023/01/05 10:45:43;;;;;;;3.60;2.00;;;;;;;7.42;95.96;97714.67;103631;1299;139769;-75
2023/01/05 10:48:17;;;;;;;4.50;2.40;;;;;;;7.44;95.96;97713.34;102821;1301;138760;-76
2023/01/05 10:50:46;;;;;;;4.80;2.20;;;;;;;7.44;95.18;97714.26;103327;1298;140490;-76
2023/01/05 10:53:24;;;;;;;5.40;2.80;;;;;;;7.45;95.32;97710.39;103395;1291;25350;-76
2023/01/05 10:56:15;;;;;;;4.10;2.40;;;;;;;7.47;94.99;97712.23;103305;1288;138780;-76
2023/01/05 10:58:46;;;;;;;3.70;2.10;;;;;;;7.50;95.11;97703.82;102938;1313;138113;-75
2023/01/05 11:01:30;;;;;;;4.10;2.90;;;;;;;7.53;94.57;97705.00;103236;1298;137987;-76
2023/01/05 11:04:06;;;;;;;6.40;2.60;;;;;;;7.56;94.72;97701.91;102989;1305;138015;-76
2023/01/05 11:06:35;;;;;;;4.20;2.10;;;;;;;7.59;94.34;97700.45;103025;1312;138215;-77
2023/01/05 11:09:11;;;;;;;4.40;2.30;;;;;;;7.59;93.70;97697.52;103345;1313;138263;-75
2023/01/05 11:11:38;;;;;;;4.30;2.10;;;;;;;7.61;93.93;97694.80;102971;1296;23885;-75
2023/01/05 11:14:11;;;;;;;4.40;2.50;;;;;;;7.64;93.72;97693.33;102871;1303;137925;-76
2023/01/05 11:16:38;;;;;;;3.80;2.20;;;;;;;7.66;93.84;97689.95;102894;1313;138988;-75
2023/01/05 11:19:11;;;;;;;4.90;2.60;;;;;;;7.68;93.55;97686.73;103722;1307;139451;-75
2023/01/05 11:21:43;;;;;;;4.20;2.50;;;;;;;7.71;93.26;97688.73;102904;1305;137995;-76
2023/01/05 11:24:23;;;;;;;6.20;2.50;;;;;;;7.74;92.92;97686.89;103196;1301;138170;-75
2023/01/05 11:26:52;;;;;;;5.10;2.60;;;;;;;7.80;93.06;97685.52;102850;1305;138245;-75
2023/01/05 11:29:19;;;;;;;6.20;2.50;;;;;;;7.84;92.45;97685.63;103746;1290;24307;-75
2023/01/05 11:32:01;;;;;;;5.90;2.50;;;;;;;7.87;92.57;97689.58;103568;1298;137713;-75
2023/01/05 11:34:57;;;;;;;5.40;2.30;;;;;;;7.90;92.17;97683.67;103414;1284;138097;-76
2023/01/05 11:37:26;;;;;;;3.40;1.80;;;;;;;7.94;92.01;97685.64;102635;1295;139065;-76
2023/01/05 11:39:58;;;;;;;4.00;2.20;;;;;;;7.96;91.63;97684.91;103065;1295;138066;-76
2023/01/05 11:42:26;;;;;;;4.20;2.40;;;;;;;7.99;91.74;97680.03;102649;1295;138541;-75
2023/01/05 11:44:57;;;;;;;7.10;2.90;;;;;;;7.99;91.32;97678.73;102483;1304;138406;-75
2023/01/05 11:47:35;;;;;;;6.50;2.40;;;;;;;8.01;91.36;97680.75;102794;1301;22497;-75
2023/01/05 11:50:08;;;;;;;6.60;3.20;;;;;;;8.01;91.11;97677.24;103182;1295;137822;-76
2023/01/05 11:52:38;;;;;;;4.80;3.00;;;;;;;8.03;91.15;97676.12;103128;1293;140132;-75
2023/01/05 11:55:23;;;;;;;6.10;2.40;;;;;;;8.03;90.52;97675.27;102476;1287;138116;-75
2023/01/05 11:57:52;;;;;;;6.30;2.20;;;;;;;8.05;90.30;97670.80;102417;1304;137961;-76
2023/01/05 12:00:32;;;;;;;5.60;2.70;;;;;;;8.07;89.98;97674.77;102406;1318;138146;-75
2023/01/05 12:03:44;;;;;;;3.90;2.20;;;;;;;8.10;90.02;97679.38;102140;1319;138304;-76
2023/01/05 12:06:37;;;;;;;7.00;2.40;;;;;;;8.13;90.02;97686.27;102365;1304;138114;-76
2023/01/05 12:09:25;;;;;;;5.80;2.30;;;;;;;8.14;90.11;97677.53;102499;1299;139569;-77
2023/01/05 12:12:14;;;;;;;7.60;2.30;;;;;;;8.13;89.54;97679.05;102421;1295;22760;-78
2023/01/05 12:15:18;;;;;;;4.30;2.00;;;;;;;8.14;88.67;97681.93;102846;1292;137944;-77
2023/01/05 12:18:16;;;;;;;7.10;2.10;;;;;;;8.18;88.60;97682.48;104457;1283;22393;-78
2023/01/05 12:20:55;;;;;;;6.10;2.70;;;;;;;8.21;88.28;97684.69;103897;1289;22529;-74